Aboyne, United Kingdom

11:51 AM BST on August 27, 2014 (GMT +0100)
ISCOTLAN34 | Change Station
CLOSE
Current Station
Personal Weather Station
Location: Aboyne, SCOTLAND
Elevation: 680 ft
Nearby Weather Stations

Elev 680 ft 57.04 °N, 2.72 °W | Updated 5 seconds ago

Scattered Clouds
Scattered Clouds
54.9 °F
Feels Like 54.9 °F
N
2.0
Wind Variable Wind from SSW
Gusts 7.0 mph

Today
High -- | Low -- °F
--% Chance of Precip.
Yesterday
High -- | Low -- °F
Precip. -- in
6:02 AM 8:21 PM
Waxing Crescent, 3% visible
Pressure 30.06 in
Visibility 6.2 miles
Clouds Few 2000 ft
Scattered Clouds 3500 ft
Dew Point 47 °F
Humidity 76%
Rainfall 0.00 in
Snow Depth Not available.
UV 2.0 out of 12
Pollen Not available.
Air Quality Not available.
Flu Activity Not available.
METAR EGPD 271020Z 13006KT 9999 FEW020 SCT035 14/09 Q1018 NOSIG

More Conditions Fewer Conditions

Pressure 30.06 in
Visibility 6.2 miles
Clouds Few 2000 ft
Scattered Clouds 3500 ft
Dew Point 47 °F
Humidity 76%
Rainfall 0.00 in
Snow Depth Not available.
UV 2.0 out of 12
Pollen Not available.
Air Quality Not available.
Flu Activity Not available.
METAR EGPD 271020Z 13006KT 9999 FEW020 SCT035 14/09 Q1018 NOSIG

More Conditions Fewer Conditions

10-Day Weather Forecast

Almanac

Astronomy

Aug. 27, 2014 Rise Set
Actual Time 6:02 AM BST 8:21 PM BST
Civil Twilight 5:20 AM BST 9:03 PM BST
Nautical Twilight 4:26 AM BST 9:56 PM BST
Astronomical Twilight 3:18 AM BST 11:03 PM BST
Moon 8:14 AM BST 8:31 PM BST
Length of Visible Light 15h 42m
Length of Day
14h 19m
Tomorrow will be 4m 42s shorter.
Waxing Crescent, 3% of the Moon is Illuminated
Today
Waxing Crescent
Sep 2
First Quarter
Sep 8
Full
Sep 15
Last Quarter
Sep 24
New

Yesterday's Extremes

Country Highs Country Lows

Community

WunderPhotos

Upload Photos

1,747,666 photos uploaded!

Nearby

Snow Depth

Not available.

Earthquake Activity

City Distance Mag. Time & Date
No recent earthquake activity has been reported nearby.
Minimum magnitude displayed is 2.5.

Coastal Water Temperatures

Place Temperature
No Stations Reporting

Nearby Weather Stations